createdAt,value
2019-03-22T00:02:18.753Z,5.00
2019-03-22T00:04:47.322Z,5.00
2019-03-22T00:07:15.539Z,5.00
2019-03-22T00:09:43.504Z,5.00
2019-03-22T00:12:11.586Z,5.00
2019-03-22T00:14:39.554Z,5.00
2019-03-22T00:17:07.659Z,5.00
2019-03-22T00:19:35.802Z,4.90
2019-03-22T00:22:04.373Z,4.90
2019-03-22T00:24:32.656Z,4.90
2019-03-22T00:27:00.625Z,4.90
2019-03-22T00:29:28.979Z,4.80
2019-03-22T00:31:57.103Z,4.80
2019-03-22T00:34:25.180Z,4.80
2019-03-22T00:36:53.276Z,4.80
2019-03-22T00:39:21.260Z,4.70
2019-03-22T00:41:49.694Z,4.60
2019-03-22T00:44:17.717Z,4.60
2019-03-22T00:46:46.519Z,4.50
2019-03-22T00:49:14.545Z,4.40
2019-03-22T00:51:42.760Z,4.40
2019-03-22T00:54:11.082Z,4.30
2019-03-22T00:56:39.274Z,4.30
2019-03-22T00:59:07.603Z,4.30
2019-03-22T01:01:35.722Z,4.40
2019-03-22T01:04:04.007Z,4.30
2019-03-22T01:06:32.352Z,4.30
2019-03-22T01:09:00.431Z,4.30
2019-03-22T01:11:28.693Z,4.30
2019-03-22T01:13:56.963Z,4.20
2019-03-22T01:16:24.994Z,4.10
2019-03-22T01:18:53.050Z,4.10
2019-03-22T01:21:21.460Z,4.00
2019-03-22T01:23:51.159Z,4.00
2019-03-22T01:26:19.192Z,3.90
2019-03-22T01:28:47.284Z,3.90
2019-03-22T01:31:15.323Z,4.00
2019-03-22T01:33:43.531Z,4.00
2019-03-22T01:36:11.582Z,3.90
2019-03-22T01:38:39.542Z,3.90
2019-03-22T01:41:07.621Z,4.00
2019-03-22T01:43:36.021Z,3.90
2019-03-22T01:46:04.133Z,3.90
2019-03-22T01:48:32.468Z,3.90
2019-03-22T01:51:00.541Z,3.90
2019-03-22T01:53:28.951Z,3.90
2019-03-22T01:55:56.913Z,3.90
2019-03-22T01:58:25.895Z,3.80
2019-03-22T02:00:54.460Z,3.80
2019-03-22T02:03:22.951Z,3.70
2019-03-22T02:05:51.018Z,3.70
2019-03-22T02:08:19.241Z,3.80
2019-03-22T02:10:47.220Z,3.70
2019-03-22T02:13:15.933Z,3.70
2019-03-22T02:15:44.016Z,3.80
2019-03-22T02:18:12.578Z,3.80
2019-03-22T02:20:40.834Z,3.60
2019-03-22T02:23:09.083Z,3.60
2019-03-22T02:25:37.513Z,3.60
2019-03-22T02:28:05.804Z,3.60
2019-03-22T02:30:33.839Z,3.60
2019-03-22T02:33:02.003Z,3.60
2019-03-22T02:35:29.984Z,3.60
2019-03-22T02:37:57.952Z,3.60
2019-03-22T02:40:26.005Z,3.60
2019-03-22T02:42:54.383Z,3.70
2019-03-22T02:45:22.456Z,3.70
2019-03-22T02:47:50.575Z,3.70
2019-03-22T02:50:19.960Z,3.70
2019-03-22T02:52:49.145Z,3.60
2019-03-22T02:55:17.501Z,3.60
2019-03-22T02:57:45.607Z,3.60
2019-03-22T03:00:15.310Z,3.50
2019-03-22T03:02:43.528Z,3.50
2019-03-22T03:05:11.743Z,3.50
2019-03-22T03:07:40.136Z,3.40
2019-03-22T03:10:09.004Z,3.40
2019-03-22T03:12:37.074Z,3.40
2019-03-22T03:15:06.144Z,3.40
2019-03-22T03:17:34.699Z,3.40
2019-03-22T03:20:04.257Z,3.30
2019-03-22T03:22:32.334Z,3.30
2019-03-22T03:25:00.447Z,3.20
2019-03-22T03:27:28.487Z,3.20
2019-03-22T03:29:56.473Z,3.10
2019-03-22T03:32:24.592Z,2.90
2019-03-22T03:34:52.887Z,2.90
2019-03-22T03:37:21.267Z,2.80
2019-03-22T03:39:49.596Z,2.80
2019-03-22T03:42:18.212Z,2.80
2019-03-22T03:44:46.310Z,2.80
2019-03-22T03:47:15.015Z,2.80
2019-03-22T03:49:43.039Z,2.80
2019-03-22T03:52:11.148Z,2.90
2019-03-22T03:54:39.337Z,2.90
2019-03-22T03:57:07.485Z,2.80
2019-03-22T03:59:35.563Z,2.80
2019-03-22T04:02:03.913Z,2.80
2019-03-22T04:04:31.977Z,2.80
2019-03-22T04:07:00.765Z,2.80
2019-03-22T04:09:29.111Z,2.90
2019-03-22T04:11:57.163Z,2.90
2019-03-22T04:14:25.255Z,2.80
2019-03-22T04:16:53.899Z,2.90
2019-03-22T04:19:22.157Z,2.90
2019-03-22T04:21:50.090Z,2.80
2019-03-22T04:24:18.173Z,2.80
2019-03-22T04:26:46.577Z,2.80
2019-03-22T04:29:15.068Z,2.80
2019-03-22T04:31:43.304Z,2.80
2019-03-22T04:34:11.446Z,2.70
2019-03-22T04:36:39.685Z,2.60
2019-03-22T04:39:08.137Z,2.60
2019-03-22T04:41:36.738Z,2.50
2019-03-22T04:44:04.863Z,2.50
2019-03-22T04:46:33.780Z,2.50
2019-03-22T04:49:02.093Z,2.50
2019-03-22T04:51:30.899Z,2.40
2019-03-22T04:54:01.957Z,2.50
2019-03-22T04:56:33.430Z,2.50
2019-03-22T04:59:04.155Z,2.50
2019-03-22T05:01:33.027Z,2.50
2019-03-22T05:04:02.678Z,2.50
2019-03-22T05:06:32.328Z,2.50
2019-03-22T05:09:01.599Z,2.50
2019-03-22T05:11:29.794Z,2.30
2019-03-22T05:14:00.719Z,2.20
2019-03-22T05:16:29.613Z,2.20
2019-03-22T05:19:00.076Z,2.30
2019-03-22T05:21:29.013Z,2.30
2019-03-22T05:24:01.775Z,2.30
2019-03-22T05:26:32.078Z,2.40
2019-03-22T05:29:00.611Z,2.40
2019-03-22T05:32:13.028Z,2.40
2019-03-22T05:34:41.116Z,2.50
2019-03-22T05:37:09.255Z,2.50
2019-03-22T05:39:37.752Z,2.40
2019-03-22T05:42:05.876Z,2.40
2019-03-22T05:44:34.012Z,2.40
2019-03-22T05:47:02.602Z,2.50
2019-03-22T05:49:31.022Z,2.40
2019-03-22T05:51:59.814Z,2.50
2019-03-22T05:54:28.000Z,2.40
2019-03-22T05:56:56.499Z,2.50
2019-03-22T05:59:25.034Z,2.50
2019-03-22T06:01:53.690Z,2.60
2019-03-22T06:04:22.351Z,2.70
2019-03-22T06:06:50.758Z,2.70
2019-03-22T06:09:18.951Z,2.70
2019-03-22T06:11:47.405Z,2.70
2019-03-22T06:14:15.700Z,2.80
2019-03-22T06:16:43.900Z,2.80
2019-03-22T06:19:12.420Z,2.90
2019-03-22T06:21:40.862Z,2.90
2019-03-22T06:24:09.709Z,3.00
2019-03-22T06:26:37.923Z,3.00
2019-03-22T06:29:06.376Z,3.10
2019-03-22T06:31:34.542Z,3.10
2019-03-22T06:34:03.083Z,3.20
2019-03-22T06:36:31.134Z,3.30
2019-03-22T06:38:59.238Z,3.30
2019-03-22T06:41:27.433Z,3.40
2019-03-22T06:43:55.979Z,3.60
2019-03-22T06:46:26.066Z,3.70
2019-03-22T06:48:54.220Z,3.80
2019-03-22T06:51:22.563Z,3.90
2019-03-22T06:53:50.690Z,4.00
2019-03-22T06:56:18.859Z,4.10
2019-03-22T06:58:47.257Z,4.20
2019-03-22T07:01:17.585Z,4.40
2019-03-22T07:03:45.758Z,4.40
2019-03-22T07:06:13.888Z,4.50
2019-03-22T07:08:42.071Z,4.60
2019-03-22T07:11:10.602Z,4.70
2019-03-22T07:13:38.740Z,4.80
2019-03-22T07:16:07.171Z,4.90
2019-03-22T07:18:35.370Z,5.00
2019-03-22T07:21:03.470Z,5.10
2019-03-22T07:23:31.799Z,5.20
2019-03-22T07:26:00.154Z,5.30
2019-03-22T07:28:29.536Z,5.40
2019-03-22T07:30:58.023Z,5.60
2019-03-22T07:33:26.497Z,5.70
2019-03-22T07:35:55.013Z,5.80
2019-03-22T07:38:23.168Z,5.80
2019-03-22T07:40:51.373Z,6.00
2019-03-22T07:43:19.560Z,6.00
2019-03-22T07:45:47.705Z,6.10
2019-03-22T07:48:15.876Z,6.20
2019-03-22T07:50:44.036Z,6.30
2019-03-22T07:53:12.478Z,6.50
2019-03-22T07:55:40.842Z,6.50
2019-03-22T07:58:08.940Z,6.70
2019-03-22T08:00:37.501Z,6.80
2019-03-22T08:03:05.661Z,6.90
2019-03-22T08:05:34.121Z,7.10
2019-03-22T08:08:02.591Z,7.20
2019-03-22T08:10:30.789Z,7.40
2019-03-22T08:12:59.169Z,7.50
2019-03-22T08:15:32.131Z,7.60
2019-03-22T08:18:00.616Z,7.70
2019-03-22T08:20:28.912Z,7.80
2019-03-22T08:22:57.147Z,7.90
2019-03-22T08:25:25.572Z,8.00
2019-03-22T08:27:54.277Z,8.10
2019-03-22T08:30:22.319Z,8.30
2019-03-22T08:32:51.090Z,8.40
2019-03-22T08:35:19.583Z,8.60
2019-03-22T08:37:52.938Z,8.80
2019-03-22T08:40:18.168Z,8.90
2019-03-22T08:42:46.375Z,9.00
2019-03-22T08:45:14.515Z,9.10
2019-03-22T08:47:42.660Z,9.30
2019-03-22T08:50:11.141Z,9.40
2019-03-22T08:52:39.732Z,9.60
2019-03-22T08:55:07.910Z,9.70
2019-03-22T08:57:36.000Z,9.90
2019-03-22T09:00:06.242Z,10.10
2019-03-22T09:02:34.715Z,10.20
2019-03-22T09:05:03.192Z,10.40
2019-03-22T09:07:31.765Z,10.60
2019-03-22T09:10:00.558Z,10.70
2019-03-22T09:12:28.976Z,10.90
2019-03-22T09:14:57.133Z,11.00
2019-03-22T09:17:25.508Z,11.10
2019-03-22T09:19:53.625Z,11.40
2019-03-22T09:22:22.255Z,11.50
2019-03-22T09:24:50.470Z,11.70
2019-03-22T09:27:19.281Z,11.80
2019-03-22T09:29:47.656Z,12.00
2019-03-22T09:32:16.376Z,12.20
2019-03-22T09:34:44.862Z,12.50
2019-03-22T09:37:13.069Z,12.60
2019-03-22T09:39:41.564Z,12.80
2019-03-22T09:42:10.509Z,13.00
2019-03-22T09:44:43.105Z,13.10
2019-03-22T09:47:08.954Z,13.20
2019-03-22T09:49:37.304Z,13.40
2019-03-22T09:52:05.498Z,13.50
2019-03-22T09:54:34.006Z,13.50
2019-03-22T09:57:02.158Z,13.70
2019-03-22T09:59:30.533Z,13.90
2019-03-22T10:01:58.753Z,14.00
2019-03-22T10:04:27.857Z,14.20
2019-03-22T10:06:56.577Z,14.40
2019-03-22T10:09:24.727Z,14.60
2019-03-22T10:11:53.368Z,14.70
2019-03-22T10:14:21.795Z,14.80
2019-03-22T10:16:50.161Z,14.80
2019-03-22T10:19:18.543Z,15.00
2019-03-22T10:21:46.889Z,15.30
2019-03-22T10:24:15.773Z,15.50
2019-03-22T10:26:44.847Z,15.70
2019-03-22T10:29:13.860Z,15.90
2019-03-22T10:31:42.475Z,15.90
2019-03-22T10:34:11.132Z,16.10
2019-03-22T10:36:39.505Z,16.20
2019-03-22T10:39:08.760Z,16.40
2019-03-22T10:41:37.830Z,16.60
2019-03-22T10:44:06.342Z,16.80
2019-03-22T10:46:35.324Z,16.90
2019-03-22T10:49:04.072Z,17.10
2019-03-22T10:51:32.560Z,17.30
2019-03-22T10:54:01.097Z,17.50
2019-03-22T10:56:29.352Z,17.60
2019-03-22T10:59:00.349Z,17.60
2019-03-22T11:01:28.987Z,17.90
2019-03-22T11:03:57.939Z,17.90
2019-03-22T11:06:29.829Z,18.10
2019-03-22T11:08:58.402Z,18.00
2019-03-22T11:11:26.833Z,18.20
2019-03-22T11:13:55.781Z,18.30
2019-03-22T11:16:24.727Z,18.30
2019-03-22T11:18:52.990Z,18.60
2019-03-22T11:21:21.688Z,18.80
2019-03-22T11:23:50.491Z,18.90
2019-03-22T11:26:18.808Z,19.00
2019-03-22T11:28:47.071Z,19.00
2019-03-22T11:31:15.776Z,19.20
2019-03-22T11:33:46.007Z,19.30
2019-03-22T11:36:14.607Z,19.50
2019-03-22T11:38:43.352Z,19.60
2019-03-22T11:41:12.325Z,19.60
2019-03-22T11:43:41.608Z,19.70
2019-03-22T11:46:09.893Z,19.90
2019-03-22T11:48:38.299Z,20.10
2019-03-22T11:51:06.739Z,20.20
2019-03-22T11:53:34.991Z,20.20
2019-03-22T11:56:03.673Z,20.40
2019-03-22T11:58:31.966Z,20.60
2019-03-22T12:01:00.726Z,20.60
2019-03-22T12:03:29.304Z,20.50
2019-03-22T12:05:57.856Z,20.40
2019-03-22T12:08:26.131Z,20.40
2019-03-22T12:10:54.751Z,20.40
2019-03-22T12:13:23.388Z,20.50
2019-03-22T12:15:52.331Z,20.60
2019-03-22T12:18:21.751Z,20.70
2019-03-22T12:20:50.160Z,20.80
2019-03-22T12:23:18.465Z,21.00
2019-03-22T12:25:47.203Z,21.10
2019-03-22T12:28:15.618Z,21.10
2019-03-22T12:30:44.262Z,21.20
2019-03-22T12:33:12.535Z,21.10
2019-03-22T12:35:42.534Z,21.10
2019-03-22T12:38:11.199Z,21.30
2019-03-22T12:40:40.071Z,21.30
2019-03-22T12:43:08.950Z,21.40
2019-03-22T12:45:37.776Z,21.30
2019-03-22T12:48:06.539Z,21.50
2019-03-22T12:50:35.055Z,21.70
2019-03-22T12:53:03.883Z,21.90
2019-03-22T12:55:32.912Z,22.00
2019-03-22T12:58:01.477Z,22.00
2019-03-22T13:00:40.148Z,21.80
2019-03-22T13:03:24.402Z,21.70
2019-03-22T13:06:09.374Z,21.80
2019-03-22T13:08:48.315Z,21.80
2019-03-22T13:11:18.800Z,21.90
2019-03-22T13:13:50.317Z,22.00
2019-03-22T13:16:19.647Z,22.20
2019-03-22T13:18:50.973Z,22.40
2019-03-22T13:21:20.375Z,22.60
2019-03-22T13:23:48.812Z,22.70
2019-03-22T13:26:19.962Z,22.80
2019-03-22T13:28:49.860Z,22.70
2019-03-22T13:31:18.481Z,22.60
2019-03-22T13:33:47.736Z,22.50
2019-03-22T13:36:17.106Z,22.50
2019-03-22T13:38:45.575Z,22.30
2019-03-22T13:41:15.106Z,22.30
2019-03-22T13:43:43.750Z,22.50
2019-03-22T13:46:12.382Z,22.60
2019-03-22T13:48:42.013Z,22.50
2019-03-22T13:51:10.887Z,22.40
2019-03-22T13:53:40.075Z,22.40
2019-03-22T13:56:11.206Z,22.20
2019-03-22T13:58:39.658Z,22.20
2019-03-22T14:01:08.094Z,22.20
2019-03-22T14:03:36.723Z,22.10
2019-03-22T14:06:06.447Z,22.10
2019-03-22T14:08:34.817Z,22.00
2019-03-22T14:11:03.137Z,22.00
2019-03-22T14:13:32.256Z,22.00
2019-03-22T14:16:00.709Z,22.00
2019-03-22T14:18:29.478Z,21.90
2019-03-22T14:20:57.880Z,22.00
2019-03-22T14:23:26.351Z,22.00
2019-03-22T14:25:55.031Z,22.10
2019-03-22T14:28:23.876Z,22.20
2019-03-22T14:30:52.451Z,22.30
2019-03-22T14:33:21.283Z,22.40
2019-03-22T14:35:50.139Z,22.50
2019-03-22T14:38:18.635Z,22.60
2019-03-22T14:40:47.076Z,22.60
2019-03-22T14:43:15.812Z,22.60
2019-03-22T14:45:44.690Z,22.60
2019-03-22T14:48:13.459Z,22.80
2019-03-22T14:50:42.230Z,22.90
2019-03-22T14:53:10.863Z,23.10
2019-03-22T14:55:40.033Z,23.10
2019-03-22T14:58:08.255Z,23.20
2019-03-22T15:00:36.589Z,23.20
2019-03-22T15:03:23.487Z,23.20
2019-03-22T15:05:53.149Z,23.20
2019-03-22T15:08:21.888Z,23.20
2019-03-22T15:10:50.674Z,23.30
2019-03-22T15:13:20.494Z,23.40
2019-03-22T15:16:26.519Z,23.40
2019-03-22T15:19:14.309Z,23.60
2019-03-22T15:22:02.325Z,23.60
2019-03-22T15:24:44.856Z,23.10
2019-03-22T15:27:38.529Z,23.20
2019-03-22T15:30:29.921Z,23.00
2019-03-22T15:33:34.418Z,22.90
2019-03-22T15:36:22.150Z,22.90
2019-03-22T15:39:08.670Z,22.80
2019-03-22T15:41:37.383Z,22.70
2019-03-22T15:44:05.758Z,22.50
2019-03-22T15:46:34.561Z,22.40
2019-03-22T15:49:03.139Z,22.40
2019-03-22T15:51:31.799Z,22.40
2019-03-22T15:54:00.163Z,22.30
2019-03-22T15:56:28.549Z,22.20
2019-03-22T15:58:57.195Z,22.10
2019-03-22T16:01:25.545Z,22.00
2019-03-22T16:03:53.845Z,21.80
2019-03-22T16:06:22.224Z,21.70
2019-03-22T16:08:50.617Z,21.60
2019-03-22T16:11:18.876Z,21.30
2019-03-22T16:13:46.965Z,21.20
2019-03-22T16:16:15.725Z,21.00
2019-03-22T16:18:44.501Z,20.90
2019-03-22T16:21:12.765Z,20.80
2019-03-22T16:23:42.206Z,20.60
2019-03-22T16:26:10.595Z,20.60
2019-03-22T16:28:39.255Z,20.50
2019-03-22T16:31:07.604Z,20.30
2019-03-22T16:33:36.293Z,20.00
2019-03-22T16:36:05.179Z,19.90
2019-03-22T16:38:33.619Z,19.70
2019-03-22T16:41:03.543Z,19.60
2019-03-22T16:43:32.553Z,19.50
2019-03-22T16:46:01.129Z,19.40
2019-03-22T16:48:29.439Z,19.30
2019-03-22T16:50:57.982Z,19.20
2019-03-22T16:53:27.112Z,19.20
2019-03-22T16:55:55.804Z,19.10
2019-03-22T16:58:24.051Z,19.00
2019-03-22T17:00:52.222Z,18.90
2019-03-22T17:03:20.696Z,18.80
2019-03-22T17:05:49.177Z,18.70
2019-03-22T17:08:17.267Z,18.60
2019-03-22T17:10:45.605Z,18.40
2019-03-22T17:13:13.838Z,18.10
2019-03-22T17:15:42.210Z,18.00
2019-03-22T17:18:10.361Z,17.90
2019-03-22T17:20:38.491Z,17.70
2019-03-22T17:23:07.079Z,17.60
2019-03-22T17:25:35.675Z,17.40
2019-03-22T17:28:03.895Z,17.20
2019-03-22T17:30:32.458Z,17.00
2019-03-22T17:33:01.018Z,16.80
2019-03-22T17:35:29.215Z,16.70
2019-03-22T17:37:57.710Z,16.40
2019-03-22T17:40:25.939Z,16.20
2019-03-22T17:42:54.545Z,16.00
2019-03-22T17:45:22.696Z,15.70
2019-03-22T17:47:52.073Z,15.50
2019-03-22T17:50:20.276Z,15.30
2019-03-22T17:52:48.517Z,15.00
2019-03-22T17:55:17.061Z,14.70
2019-03-22T17:57:45.498Z,14.60
2019-03-22T18:00:15.331Z,14.40
2019-03-22T18:02:43.940Z,14.30
2019-03-22T18:05:12.457Z,14.10
2019-03-22T18:07:41.044Z,14.00
2019-03-22T18:10:09.729Z,13.80
2019-03-22T18:12:38.877Z,13.60
2019-03-22T18:15:07.739Z,13.40
2019-03-22T18:17:36.183Z,13.20
2019-03-22T18:20:06.223Z,13.20
2019-03-22T18:22:34.389Z,13.00
2019-03-22T18:25:02.766Z,13.00
2019-03-22T18:27:32.472Z,12.90
2019-03-22T18:30:00.923Z,12.90
2019-03-22T18:32:29.313Z,12.80
2019-03-22T18:34:57.824Z,12.70
2019-03-22T18:37:25.971Z,12.60
2019-03-22T18:39:54.180Z,12.50
2019-03-22T18:42:23.050Z,12.30
2019-03-22T18:44:51.829Z,12.30
2019-03-22T18:47:20.651Z,12.20
2019-03-22T18:49:49.377Z,12.10
2019-03-22T18:52:17.656Z,12.00
2019-03-22T18:54:46.149Z,11.90
2019-03-22T18:57:14.350Z,11.80
2019-03-22T18:59:42.880Z,11.60
2019-03-22T19:02:11.222Z,11.50
2019-03-22T19:04:43.904Z,11.30
2019-03-22T19:07:10.062Z,11.20
2019-03-22T19:09:38.673Z,11.00
2019-03-22T19:12:06.958Z,10.90
2019-03-22T19:14:35.149Z,10.80
2019-03-22T19:17:03.397Z,10.70
2019-03-22T19:19:32.560Z,10.60
2019-03-22T19:22:00.821Z,10.60
2019-03-22T19:24:29.378Z,10.60
2019-03-22T19:26:57.486Z,10.60
2019-03-22T19:29:25.938Z,10.60
2019-03-22T19:31:54.152Z,10.60
2019-03-22T19:34:22.641Z,10.60
2019-03-22T19:36:51.097Z,10.60
2019-03-22T19:39:19.229Z,10.40
2019-03-22T19:41:47.390Z,10.40
2019-03-22T19:44:15.518Z,10.30
2019-03-22T19:46:43.962Z,10.20
2019-03-22T19:49:12.410Z,10.20
2019-03-22T19:51:41.095Z,10.10
2019-03-22T19:54:09.284Z,10.10
2019-03-22T19:56:37.571Z,10.10
2019-03-22T19:59:06.496Z,10.10
2019-03-22T20:01:35.351Z,10.00
2019-03-22T20:04:03.893Z,9.90
2019-03-22T20:06:32.118Z,9.80
2019-03-22T20:09:00.463Z,9.80
2019-03-22T20:11:29.074Z,9.80
2019-03-22T20:13:57.191Z,9.80
2019-03-22T20:16:26.050Z,9.70
2019-03-22T20:18:54.577Z,9.70
2019-03-22T20:21:23.169Z,9.60
2019-03-22T20:23:53.757Z,9.50
2019-03-22T20:26:22.008Z,9.50
2019-03-22T20:28:50.389Z,9.40
2019-03-22T20:31:19.201Z,9.30
2019-03-22T20:33:47.315Z,9.20
2019-03-22T20:36:15.786Z,9.10
2019-03-22T20:38:44.026Z,8.90
2019-03-22T20:41:12.159Z,8.80
2019-03-22T20:43:40.303Z,8.80
2019-03-22T20:46:08.854Z,8.80
2019-03-22T20:48:37.809Z,8.80
2019-03-22T20:51:06.330Z,8.80
2019-03-22T20:53:34.528Z,8.80
2019-03-22T20:56:02.704Z,8.80
2019-03-22T20:58:31.198Z,8.70
2019-03-22T21:00:59.582Z,8.70
2019-03-22T21:03:28.260Z,8.60
2019-03-22T21:05:56.755Z,8.60
2019-03-22T21:08:25.209Z,8.60
2019-03-22T21:10:53.703Z,8.50
2019-03-22T21:13:22.205Z,8.40
2019-03-22T21:15:50.511Z,8.30
2019-03-22T21:21:47.754Z,8.30
2019-03-22T21:24:17.247Z,8.40
2019-03-22T21:26:45.622Z,8.40
2019-03-22T21:29:14.219Z,8.20
2019-03-22T21:31:42.796Z,8.10
2019-03-22T21:34:11.155Z,8.00
2019-03-22T21:36:40.398Z,7.90
2019-03-22T21:39:08.751Z,7.90
2019-03-22T21:41:37.674Z,7.90
2019-03-22T21:44:07.037Z,7.90
2019-03-22T21:46:36.063Z,7.80
2019-03-22T21:49:04.214Z,7.80
2019-03-22T21:51:32.363Z,7.80
2019-03-22T21:54:01.033Z,7.80
2019-03-22T21:56:29.912Z,7.80
2019-03-22T21:58:58.688Z,7.80
2019-03-22T22:01:27.350Z,7.90
2019-03-22T22:03:55.505Z,7.90
2019-03-22T22:06:23.773Z,7.90
2019-03-22T22:08:52.531Z,7.90
2019-03-22T22:11:20.868Z,7.90
2019-03-22T22:13:49.047Z,7.80
2019-03-22T22:16:17.146Z,7.70
2019-03-22T22:18:45.322Z,7.50
2019-03-22T22:21:13.722Z,7.40
2019-03-22T22:23:41.897Z,7.40
2019-03-22T22:26:10.668Z,7.30
2019-03-22T22:28:39.438Z,7.20
2019-03-22T22:31:07.697Z,7.20
2019-03-22T22:33:35.973Z,7.20
2019-03-22T22:36:04.898Z,7.20
2019-03-22T22:38:34.283Z,7.30
2019-03-22T22:41:02.604Z,7.40
2019-03-22T22:43:32.938Z,7.40
2019-03-22T22:46:01.185Z,7.40
2019-03-22T22:48:29.404Z,7.40
2019-03-22T22:50:57.623Z,7.30
2019-03-22T22:53:26.035Z,7.20
2019-03-22T22:55:54.142Z,7.20
2019-03-22T22:58:22.694Z,7.20
2019-03-22T23:00:50.956Z,7.30
2019-03-22T23:03:19.226Z,7.30
2019-03-22T23:05:47.376Z,7.30
2019-03-22T23:08:15.598Z,7.30
2019-03-22T23:10:44.434Z,7.30
2019-03-22T23:13:13.307Z,7.20
2019-03-22T23:15:41.753Z,7.20
2019-03-22T23:18:10.161Z,7.20
2019-03-22T23:20:38.670Z,7.10
2019-03-22T23:23:06.734Z,6.90
2019-03-22T23:25:34.973Z,6.90
2019-03-22T23:28:03.075Z,6.90
2019-03-22T23:30:31.245Z,6.90
2019-03-22T23:32:59.375Z,6.90
2019-03-22T23:35:28.070Z,6.90
2019-03-22T23:37:56.339Z,6.90
2019-03-22T23:40:24.507Z,6.90
2019-03-22T23:42:52.766Z,6.90
2019-03-22T23:45:21.389Z,6.80
2019-03-22T23:47:49.531Z,6.80
2019-03-22T23:50:18.084Z,6.80
2019-03-22T23:52:46.763Z,6.60
2019-03-22T23:55:14.946Z,6.50
2019-03-22T23:57:43.077Z,6.60
